createdAt,value
2018-11-06T00:00:26.205Z,21.20
2018-11-06T00:02:59.793Z,22.10
2018-11-06T00:05:27.912Z,18.92
2018-11-06T00:07:56.065Z,25.88
2018-11-06T00:10:24.172Z,15.63
2018-11-06T00:12:52.290Z,21.73
2018-11-06T00:15:20.373Z,18.62
2018-11-06T00:17:48.545Z,19.05
2018-11-06T00:20:16.648Z,29.65
2018-11-06T00:22:44.786Z,23.18
2018-11-06T00:25:13.612Z,16.67
2018-11-06T00:27:41.994Z,21.60
2018-11-06T00:30:12.049Z,17.50
2018-11-06T00:32:40.945Z,19.52
2018-11-06T00:35:10.648Z,19.42
2018-11-06T00:37:39.096Z,20.43
2018-11-06T00:40:07.229Z,18.45
2018-11-06T00:42:35.429Z,25.08
2018-11-06T00:45:03.576Z,24.98
2018-11-06T00:47:31.689Z,19.10
2018-11-06T00:49:59.842Z,21.33
2018-11-06T00:52:27.941Z,28.57
2018-11-06T00:54:56.162Z,17.52
2018-11-06T00:57:24.254Z,23.87
2018-11-06T00:59:52.862Z,16.40
2018-11-06T01:02:20.979Z,24.87
2018-11-06T01:04:49.066Z,18.67
2018-11-06T01:07:17.202Z,20.48
2018-11-06T01:09:45.313Z,16.40
2018-11-06T01:12:13.484Z,24.32
2018-11-06T01:14:41.657Z,17.57
2018-11-06T01:17:09.712Z,15.03
2018-11-06T01:19:37.805Z,14.00
2018-11-06T01:22:06.357Z,19.37
2018-11-06T01:24:34.493Z,19.75
2018-11-06T01:27:02.751Z,18.00
2018-11-06T01:29:30.830Z,18.25
2018-11-06T01:31:58.918Z,19.32
2018-11-06T01:34:27.041Z,25.05
2018-11-06T01:36:55.133Z,20.52
2018-11-06T01:39:23.204Z,17.30
2018-11-06T01:41:51.327Z,22.75
2018-11-06T01:44:19.432Z,15.63
2018-11-06T01:46:47.928Z,20.45
2018-11-06T01:49:15.992Z,19.57
2018-11-06T01:51:44.286Z,16.12
2018-11-06T01:54:12.448Z,19.27
2018-11-06T01:56:40.888Z,17.02
2018-11-06T01:59:09.014Z,15.20
2018-11-06T02:01:37.109Z,17.00
2018-11-06T02:04:05.273Z,15.13
2018-11-06T02:06:33.345Z,18.17
2018-11-06T02:09:01.442Z,17.77
2018-11-06T02:11:29.536Z,21.10
2018-11-06T02:13:57.630Z,22.25
2018-11-06T02:16:25.790Z,17.60
2018-11-06T02:18:53.899Z,21.70
2018-11-06T02:21:21.982Z,14.40
2018-11-06T02:23:50.061Z,23.83
2018-11-06T02:26:18.132Z,19.12
2018-11-06T02:28:46.208Z,21.33
2018-11-06T02:31:14.302Z,18.23
2018-11-06T02:33:42.617Z,19.32
2018-11-06T02:36:10.788Z,17.35
2018-11-06T02:38:39.157Z,16.10
2018-11-06T02:41:07.336Z,17.87
2018-11-06T02:43:35.444Z,17.40
2018-11-06T02:46:03.529Z,19.67
2018-11-06T02:48:31.610Z,22.77
2018-11-06T02:50:59.701Z,19.30
2018-11-06T02:53:27.845Z,20.97
2018-11-06T02:55:56.019Z,22.70
2018-11-06T02:58:24.105Z,17.62
2018-11-06T03:00:52.192Z,31.23
2018-11-06T03:03:20.289Z,17.62
2018-11-06T03:05:48.441Z,16.30
2018-11-06T03:08:16.605Z,19.80
2018-11-06T03:10:44.897Z,16.20
2018-11-06T03:13:12.996Z,19.00
2018-11-06T03:15:41.069Z,23.80
2018-11-06T03:18:09.182Z,19.57
2018-11-06T03:20:37.240Z,34.75
2018-11-06T03:23:05.450Z,18.60
2018-11-06T03:25:33.554Z,21.77
2018-11-06T03:28:01.645Z,17.32
2018-11-06T03:30:29.758Z,17.37
2018-11-06T03:32:57.848Z,15.90
2018-11-06T03:35:25.925Z,19.90
2018-11-06T03:37:54.132Z,15.98
2018-11-06T03:40:22.182Z,18.00
2018-11-06T03:42:50.297Z,21.50
2018-11-06T03:45:18.391Z,18.17
2018-11-06T03:47:46.505Z,18.07
2018-11-06T03:50:14.695Z,18.70
2018-11-06T03:52:42.797Z,24.85
2018-11-06T03:55:10.853Z,16.45
2018-11-06T03:57:38.943Z,27.15
2018-11-06T04:00:09.623Z,17.70
2018-11-06T04:02:37.717Z,23.80
2018-11-06T04:05:06.675Z,18.75
2018-11-06T04:07:34.821Z,18.35
2018-11-06T04:10:03.093Z,19.55
2018-11-06T04:12:31.172Z,17.70
2018-11-06T04:14:59.231Z,21.65
2018-11-06T04:17:27.333Z,17.75
2018-11-06T04:19:55.402Z,15.63
2018-11-06T04:22:23.491Z,24.57
2018-11-06T04:24:51.632Z,19.90
2018-11-06T04:27:19.683Z,15.72
2018-11-06T04:29:47.792Z,16.20
2018-11-06T04:32:15.852Z,17.20
2018-11-06T04:34:43.938Z,16.25
2018-11-06T04:37:12.202Z,22.00
2018-11-06T04:39:40.300Z,26.68
2018-11-06T04:42:08.405Z,21.05
2018-11-06T04:44:36.462Z,17.82
2018-11-06T04:47:04.541Z,23.42
2018-11-06T04:49:32.590Z,23.05
2018-11-06T04:52:00.660Z,15.28
2018-11-06T04:54:28.719Z,20.30
2018-11-06T04:56:56.813Z,16.32
2018-11-06T04:59:24.883Z,31.60
2018-11-06T05:01:52.987Z,23.12
2018-11-06T05:04:21.024Z,24.47
2018-11-06T05:06:49.242Z,24.87
2018-11-06T05:09:17.271Z,20.97
2018-11-06T05:11:45.350Z,20.35
2018-11-06T05:14:13.559Z,19.25
2018-11-06T05:16:41.545Z,18.45
2018-11-06T05:19:09.704Z,21.20
2018-11-06T05:21:37.729Z,14.75
2018-11-06T05:24:05.833Z,18.85
2018-11-06T05:26:33.905Z,17.23
2018-11-06T05:29:01.973Z,19.48
2018-11-06T05:31:30.101Z,25.60
2018-11-06T05:33:58.172Z,18.10
2018-11-06T05:36:26.293Z,21.25
2018-11-06T05:38:54.520Z,19.77
2018-11-06T05:41:22.535Z,22.93
2018-11-06T05:43:50.599Z,29.00
2018-11-06T05:46:18.651Z,19.75
2018-11-06T05:48:46.728Z,18.62
2018-11-06T05:51:14.973Z,16.52
2018-11-06T05:53:43.054Z,24.77
2018-11-06T05:56:11.162Z,17.55
2018-11-06T05:58:39.237Z,17.15
2018-11-06T06:01:07.293Z,22.52
2018-11-06T06:03:35.390Z,19.02
2018-11-06T06:06:03.464Z,17.92
2018-11-06T06:08:31.551Z,16.50
2018-11-06T06:10:59.667Z,19.23
2018-11-06T06:13:27.713Z,16.12
2018-11-06T06:15:55.809Z,13.80
2018-11-06T06:18:23.872Z,17.87
2018-11-06T06:20:52.029Z,16.87
2018-11-06T06:23:20.111Z,16.70
2018-11-06T06:25:48.196Z,21.30
2018-11-06T06:28:16.312Z,20.97
2018-11-06T06:30:44.328Z,17.75
2018-11-06T06:33:12.390Z,20.62
2018-11-06T06:35:40.520Z,17.17
2018-11-06T06:38:08.605Z,23.18
2018-11-06T06:40:36.720Z,17.87
2018-11-06T06:43:05.159Z,14.23
2018-11-06T06:45:33.227Z,18.27
2018-11-06T06:48:01.289Z,13.90
2018-11-06T06:50:29.352Z,13.20
2018-11-06T06:52:57.415Z,16.45
2018-11-06T06:55:25.486Z,15.65
2018-11-06T06:57:53.599Z,15.18
2018-11-06T07:00:22.446Z,17.02
2018-11-06T07:02:50.573Z,14.33
2018-11-06T07:05:20.154Z,12.90
2018-11-06T07:07:48.239Z,24.25
2018-11-06T07:10:17.720Z,15.88
2018-11-06T07:12:46.559Z,13.78
2018-11-06T07:15:15.909Z,15.72
2018-11-06T07:17:44.718Z,23.15
2018-11-06T07:20:27.393Z,18.37
2018-11-06T07:22:55.498Z,16.52
2018-11-06T07:25:23.600Z,25.17
2018-11-06T07:27:51.683Z,21.52
2018-11-06T07:30:21.254Z,16.23
2018-11-06T07:32:49.389Z,18.90
2018-11-06T07:35:18.537Z,15.20
2018-11-06T07:37:46.689Z,21.15
2018-11-06T07:40:16.197Z,18.37
2018-11-06T07:42:44.329Z,19.00
2018-11-06T07:45:14.386Z,17.98
2018-11-06T07:47:42.584Z,17.85
2018-11-06T07:50:10.474Z,17.40
2018-11-06T07:52:39.110Z,17.42
2018-11-06T07:55:09.333Z,15.72
2018-11-06T07:57:37.381Z,14.78
2018-11-06T08:00:08.643Z,16.67
2018-11-06T08:02:36.770Z,16.67
2018-11-06T08:05:05.520Z,16.73
2018-11-06T08:07:33.617Z,18.05
2018-11-06T08:10:01.713Z,13.95
2018-11-06T08:12:29.791Z,19.32
2018-11-06T08:14:57.952Z,19.25
2018-11-06T08:17:25.986Z,17.12
2018-11-06T08:19:54.093Z,18.15
2018-11-06T08:22:22.153Z,16.70
2018-11-06T08:24:50.263Z,18.37
2018-11-06T08:27:18.349Z,13.97
2018-11-06T08:29:46.498Z,27.03
2018-11-06T08:32:14.847Z,15.60
2018-11-06T08:34:42.652Z,12.60
2018-11-06T08:37:10.843Z,12.73
2018-11-06T08:39:38.868Z,13.07
2018-11-06T08:42:07.431Z,16.83
2018-11-06T08:44:35.529Z,14.13
2018-11-06T08:47:03.620Z,14.90
2018-11-06T08:49:31.720Z,16.47
2018-11-06T08:51:59.791Z,21.37
2018-11-06T08:54:27.909Z,13.30
2018-11-06T08:56:55.941Z,12.90
2018-11-06T08:59:24.045Z,20.83
2018-11-06T09:01:52.140Z,12.93
2018-11-06T09:04:20.232Z,19.07
2018-11-06T09:06:48.320Z,12.23
2018-11-06T09:09:16.401Z,16.17
2018-11-06T09:11:44.485Z,24.47
2018-11-06T09:14:12.569Z,14.03
2018-11-06T09:16:40.677Z,22.10
2018-11-06T09:19:08.819Z,22.03
2018-11-06T09:21:36.933Z,14.80
2018-11-06T09:24:05.412Z,20.73
2018-11-06T09:26:33.489Z,15.33
2018-11-06T09:29:01.617Z,18.93
2018-11-06T09:31:30.112Z,17.83
2018-11-06T09:33:58.901Z,12.13
2018-11-06T09:36:27.675Z,13.73
2018-11-06T09:38:55.781Z,16.53
2018-11-06T09:41:24.332Z,18.53
2018-11-06T09:43:52.642Z,14.20
2018-11-06T09:46:20.693Z,12.17
2018-11-06T09:48:48.831Z,15.27
2018-11-06T09:51:16.837Z,17.30
2018-11-06T09:53:44.915Z,22.27
2018-11-06T09:56:12.993Z,22.73
2018-11-06T09:58:41.073Z,19.87
2018-11-06T10:01:09.153Z,24.87
2018-11-06T10:03:37.273Z,19.33
2018-11-06T10:06:05.835Z,15.10
2018-11-06T10:08:33.852Z,12.23
2018-11-06T10:11:01.933Z,13.60
2018-11-06T10:13:30.011Z,14.63
2018-11-06T10:15:58.085Z,16.00
2018-11-06T10:18:26.171Z,17.27
2018-11-06T10:20:54.243Z,23.20
2018-11-06T10:23:22.354Z,19.33
2018-11-06T10:25:50.479Z,26.00
2018-11-06T10:28:18.558Z,19.07
2018-11-06T10:30:46.680Z,19.10
2018-11-06T10:33:14.756Z,24.17
2018-11-06T10:35:42.847Z,18.03
2018-11-06T10:38:10.930Z,16.87
2018-11-06T10:40:38.998Z,17.20
2018-11-06T10:43:07.145Z,21.77
2018-11-06T10:45:35.217Z,19.87
2018-11-06T10:48:03.358Z,22.20
2018-11-06T10:50:31.456Z,21.93
2018-11-06T10:52:59.549Z,13.80
2018-11-06T10:55:27.621Z,27.73
2018-11-06T10:57:55.774Z,19.00
2018-11-06T11:00:29.363Z,19.47
2018-11-06T11:03:02.930Z,22.87
2018-11-06T11:05:31.268Z,19.90
2018-11-06T11:07:59.366Z,20.40
2018-11-06T11:10:27.429Z,20.73
2018-11-06T11:12:55.535Z,26.90
2018-11-06T11:15:23.616Z,19.90
2018-11-06T11:17:51.698Z,22.73
2018-11-06T11:20:19.894Z,19.73
2018-11-06T11:22:47.922Z,22.10
2018-11-06T11:25:16.877Z,20.30
2018-11-06T11:27:45.691Z,18.20
2018-11-06T11:30:15.174Z,25.00
2018-11-06T11:32:44.873Z,27.87
2018-11-06T11:35:13.561Z,29.30
2018-11-06T11:37:42.013Z,27.97
2018-11-06T11:40:11.651Z,25.77
2018-11-06T11:42:39.745Z,20.60
2018-11-06T11:45:09.576Z,19.13
2018-11-06T11:47:37.749Z,18.73
2018-11-06T11:50:07.429Z,22.37
2018-11-06T11:52:35.529Z,19.60
2018-11-06T11:55:03.705Z,22.83
2018-11-06T11:57:31.801Z,21.00
2018-11-06T11:59:59.916Z,21.03
2018-11-06T12:02:27.990Z,28.30
2018-11-06T12:04:56.122Z,25.03
2018-11-06T12:07:24.200Z,21.50
2018-11-06T12:09:52.267Z,19.40
2018-11-06T12:12:20.381Z,25.77
2018-11-06T12:14:48.496Z,26.30
2018-11-06T12:17:16.590Z,22.80
2018-11-06T12:19:44.658Z,21.87
2018-11-06T12:22:12.777Z,23.77
2018-11-06T12:24:40.988Z,25.30
2018-11-06T12:27:09.017Z,18.53
2018-11-06T12:29:37.161Z,16.20
2018-11-06T12:32:05.251Z,24.70
2018-11-06T12:34:33.645Z,20.30
2018-11-06T12:37:01.814Z,26.47
2018-11-06T12:39:29.803Z,18.97
2018-11-06T12:41:57.917Z,18.43
2018-11-06T12:44:26.013Z,19.70
2018-11-06T12:46:54.536Z,19.07
2018-11-06T12:49:22.681Z,14.80
2018-11-06T12:51:50.811Z,20.27
2018-11-06T12:54:18.937Z,13.83
2018-11-06T12:56:47.072Z,27.63
2018-11-06T12:59:15.261Z,11.90
2018-11-06T13:01:43.411Z,23.37
2018-11-06T13:04:11.506Z,16.93
2018-11-06T13:06:39.628Z,14.80
2018-11-06T13:09:09.937Z,20.00
2018-11-06T13:11:38.560Z,17.00
2018-11-06T13:14:07.205Z,19.87
2018-11-06T13:16:35.448Z,15.40
2018-11-06T13:19:03.531Z,16.93
2018-11-06T13:21:31.669Z,15.77
2018-11-06T13:23:59.773Z,17.00
2018-11-06T13:26:28.144Z,21.90
2018-11-06T13:28:56.080Z,22.00
2018-11-06T13:31:24.238Z,14.77
2018-11-06T13:33:52.380Z,17.03
2018-11-06T13:36:20.534Z,18.13
2018-11-06T13:38:48.664Z,12.60
2018-11-06T13:41:16.815Z,16.33
2018-11-06T13:43:45.061Z,15.97
2018-11-06T13:46:13.098Z,19.27
2018-11-06T13:48:41.201Z,24.40
2018-11-06T13:51:09.312Z,18.80
2018-11-06T13:53:37.429Z,13.63
2018-11-06T13:56:05.714Z,18.70
2018-11-06T13:58:33.907Z,17.43
2018-11-06T14:01:02.046Z,22.03
2018-11-06T14:03:30.217Z,14.80
2018-11-06T14:05:58.307Z,18.40
2018-11-06T14:08:26.517Z,20.93
2018-11-06T14:10:54.793Z,13.10
2018-11-06T14:13:22.888Z,19.27
2018-11-06T14:15:50.994Z,19.60
2018-11-06T14:18:19.098Z,19.33
2018-11-06T14:20:47.205Z,20.50
2018-11-06T14:23:15.340Z,15.00
2018-11-06T14:25:43.470Z,23.03
2018-11-06T14:28:11.581Z,46.03
2018-11-06T14:30:39.740Z,33.67
2018-11-06T14:33:07.933Z,34.30
2018-11-06T14:35:36.093Z,40.70
2018-11-06T14:38:04.189Z,24.27
2018-11-06T14:40:32.335Z,67.13
2018-11-06T14:43:00.469Z,52.77
2018-11-06T14:45:28.561Z,61.97
2018-11-06T14:47:56.714Z,57.00
2018-11-06T14:50:24.767Z,41.63
2018-11-06T14:52:52.873Z,37.00
2018-11-06T14:55:20.948Z,32.90
2018-11-06T14:57:49.030Z,32.37
2018-11-06T15:00:21.418Z,30.40
2018-11-06T15:02:50.994Z,26.37
2018-11-06T15:05:19.922Z,29.87
2018-11-06T15:07:48.022Z,28.67
2018-11-06T15:10:16.208Z,23.93
2018-11-06T15:12:44.864Z,32.67
2018-11-06T15:15:13.568Z,22.93
2018-11-06T15:17:43.158Z,24.67
2018-11-06T15:20:13.894Z,24.77
2018-11-06T15:22:42.752Z,26.73
2018-11-06T15:25:11.823Z,32.63
2018-11-06T15:27:40.374Z,38.17
2018-11-06T15:30:10.305Z,32.80
2018-11-06T15:32:38.565Z,30.97
2018-11-06T15:35:07.404Z,24.57
2018-11-06T15:37:36.216Z,36.47
2018-11-06T15:40:04.696Z,38.73
2018-11-06T15:42:32.889Z,39.10
2018-11-06T15:45:01.168Z,32.43
2018-11-06T15:47:29.240Z,25.53
2018-11-06T15:49:57.309Z,19.30
2018-11-06T15:52:25.472Z,20.90
2018-11-06T15:54:53.584Z,24.10
2018-11-06T15:57:21.835Z,31.73
2018-11-06T15:59:49.912Z,24.27
2018-11-06T16:02:18.058Z,18.93
2018-11-06T16:04:46.148Z,19.03
2018-11-06T16:07:14.341Z,17.70
2018-11-06T16:09:42.489Z,20.87
2018-11-06T16:12:10.657Z,16.97
2018-11-06T16:14:38.796Z,18.70
2018-11-06T16:17:06.912Z,21.40
2018-11-06T16:19:35.009Z,23.17
2018-11-06T16:22:03.084Z,18.43
2018-11-06T16:24:31.462Z,19.80
2018-11-06T16:26:59.538Z,14.40
2018-11-06T16:29:27.659Z,18.40
2018-11-06T16:31:55.761Z,9.00
2018-11-06T16:34:23.820Z,9.13
2018-11-06T16:36:51.912Z,13.00
2018-11-06T16:39:19.985Z,11.43
2018-11-06T16:41:48.085Z,9.13
2018-11-06T16:44:16.172Z,9.30
2018-11-06T16:46:44.271Z,7.87
2018-11-06T16:49:12.915Z,10.40
2018-11-06T16:51:41.139Z,15.80
2018-11-06T16:54:09.204Z,11.70
2018-11-06T16:56:37.324Z,10.47
2018-11-06T16:59:05.531Z,10.87
2018-11-06T17:01:33.689Z,14.03
2018-11-06T17:04:01.985Z,10.53
2018-11-06T17:06:35.344Z,14.07
2018-11-06T17:09:05.100Z,12.90
2018-11-06T17:11:33.160Z,14.80
2018-11-06T17:14:01.295Z,10.90
2018-11-06T17:16:29.382Z,12.03
2018-11-06T17:18:57.884Z,11.43
2018-11-06T17:21:26.839Z,13.90
2018-11-06T17:23:55.011Z,9.80
2018-11-06T17:26:23.141Z,13.93
2018-11-06T17:28:51.477Z,10.53
2018-11-06T17:31:19.593Z,15.10
2018-11-06T17:33:47.718Z,24.03
2018-11-06T17:36:16.184Z,10.77
2018-11-06T17:38:44.299Z,11.93
2018-11-06T17:41:13.273Z,12.10
2018-11-06T17:43:42.213Z,11.57
2018-11-06T17:46:10.324Z,11.80
2018-11-06T17:48:38.430Z,13.73
2018-11-06T17:51:06.502Z,12.10
2018-11-06T17:53:34.736Z,12.70
2018-11-06T17:56:02.887Z,18.80
2018-11-06T17:58:31.099Z,20.90
2018-11-06T18:00:59.160Z,17.80
2018-11-06T18:03:27.260Z,17.00
2018-11-06T18:05:55.354Z,14.90
2018-11-06T18:08:23.466Z,17.33
2018-11-06T18:10:51.569Z,17.87
2018-11-06T18:13:19.736Z,16.50
2018-11-06T18:15:47.893Z,13.60
2018-11-06T18:18:16.254Z,13.97
2018-11-06T18:20:44.389Z,14.83
2018-11-06T18:23:12.522Z,9.60
2018-11-06T18:25:40.770Z,14.50
2018-11-06T18:28:08.721Z,16.80
2018-11-06T18:30:36.853Z,16.23
2018-11-06T18:33:06.348Z,18.77
2018-11-06T18:35:34.471Z,12.43
2018-11-06T18:38:02.551Z,15.07
2018-11-06T18:40:30.685Z,18.30
2018-11-06T18:42:58.778Z,14.90
2018-11-06T18:45:26.852Z,17.70
2018-11-06T18:47:55.044Z,20.37
2018-11-06T18:50:23.026Z,17.70
2018-11-06T18:52:51.698Z,14.17
2018-11-06T18:55:19.944Z,18.00
2018-11-06T18:57:48.108Z,12.10
2018-11-06T19:00:17.656Z,24.87
2018-11-06T19:02:46.863Z,23.90
2018-11-06T19:05:15.637Z,17.03
2018-11-06T19:07:43.774Z,20.43
2018-11-06T19:10:13.248Z,20.47
2018-11-06T19:12:41.477Z,19.10
2018-11-06T19:15:14.028Z,19.87
2018-11-06T19:17:42.661Z,17.80
2018-11-06T19:20:11.793Z,23.37
2018-11-06T19:22:39.889Z,19.90
2018-11-06T19:25:09.064Z,16.43
2018-11-06T19:27:37.509Z,15.83
2018-11-06T19:30:08.047Z,15.67
2018-11-06T19:32:36.245Z,19.03
2018-11-06T19:35:04.409Z,15.67
2018-11-06T19:37:32.503Z,20.77
2018-11-06T19:40:00.672Z,17.40
2018-11-06T19:42:28.928Z,16.50
2018-11-06T19:44:56.929Z,14.53
2018-11-06T19:47:25.144Z,20.53
2018-11-06T19:49:53.220Z,23.37
2018-11-06T19:52:21.303Z,17.87
2018-11-06T19:54:49.373Z,18.83
2018-11-06T19:57:17.494Z,20.60
2018-11-06T19:59:45.589Z,17.33
2018-11-06T20:02:13.722Z,22.40
2018-11-06T20:04:41.855Z,15.87
2018-11-06T20:07:09.940Z,20.97
2018-11-06T20:09:38.075Z,26.43
2018-11-06T20:12:06.139Z,18.73
2018-11-06T20:14:34.184Z,17.50
2018-11-06T20:17:02.293Z,16.10
2018-11-06T20:19:30.414Z,17.37
2018-11-06T20:21:58.490Z,18.30
2018-11-06T20:24:26.600Z,15.13
2018-11-06T20:26:54.713Z,20.13
2018-11-06T20:29:22.941Z,17.13
2018-11-06T20:31:51.017Z,19.30
2018-11-06T20:34:19.163Z,17.33
2018-11-06T20:36:47.228Z,24.07
2018-11-06T20:39:15.326Z,14.77
2018-11-06T20:41:43.426Z,27.37
2018-11-06T20:44:11.524Z,24.23
2018-11-06T20:46:39.609Z,32.23
2018-11-06T20:49:07.793Z,22.77
2018-11-06T20:51:35.817Z,22.70
2018-11-06T20:54:04.246Z,21.60
2018-11-06T20:56:32.349Z,25.90
2018-11-06T20:59:00.617Z,23.37
2018-11-06T21:01:28.816Z,37.67
2018-11-06T21:03:56.944Z,32.70
2018-11-06T21:06:25.020Z,24.50
2018-11-06T21:08:53.153Z,20.00
2018-11-06T21:11:21.249Z,15.03
2018-11-06T21:13:49.433Z,13.93
2018-11-06T21:16:17.394Z,18.10
2018-11-06T21:18:45.455Z,14.13
2018-11-06T21:21:13.522Z,14.73
2018-11-06T21:23:41.783Z,18.97
2018-11-06T21:26:10.029Z,17.53
2018-11-06T21:28:37.992Z,19.10
2018-11-06T21:31:06.167Z,14.70
2018-11-06T21:33:34.393Z,15.13
2018-11-06T21:36:02.428Z,21.97
2018-11-06T21:38:30.534Z,14.13
2018-11-06T21:40:58.609Z,19.93
2018-11-06T21:43:26.711Z,15.50
2018-11-06T21:45:54.805Z,15.87
2018-11-06T21:48:22.896Z,16.93
2018-11-06T21:50:50.957Z,16.17
2018-11-06T21:53:19.041Z,13.87
2018-11-06T21:55:47.340Z,14.00
2018-11-06T21:58:15.441Z,20.43
2018-11-06T22:00:43.605Z,14.97
2018-11-06T22:03:11.633Z,8.73
2018-11-06T22:05:39.706Z,20.30
2018-11-06T22:08:07.800Z,17.90
2018-11-06T22:10:36.186Z,15.80
2018-11-06T22:13:04.409Z,12.50
2018-11-06T22:15:32.484Z,14.93
2018-11-06T22:18:00.663Z,15.00
2018-11-06T22:20:28.830Z,16.00
2018-11-06T22:22:57.316Z,10.87
2018-11-06T22:25:25.400Z,15.90
2018-11-06T22:27:53.508Z,11.93
2018-11-06T22:30:21.634Z,17.90
2018-11-06T22:32:50.410Z,12.33
2018-11-06T22:35:18.894Z,11.70
2018-11-06T22:37:46.999Z,14.53
2018-11-06T22:40:16.229Z,19.57
2018-11-06T22:42:44.323Z,11.97
2018-11-06T22:45:13.685Z,15.30
2018-11-06T22:47:42.132Z,12.43
2018-11-06T22:50:12.253Z,15.93
2018-11-06T22:52:40.516Z,9.77
2018-11-06T22:55:08.681Z,23.77
2018-11-06T22:57:36.780Z,18.33
2018-11-06T23:00:09.107Z,15.33
2018-11-06T23:02:37.212Z,11.80
2018-11-06T23:05:05.594Z,16.87
2018-11-06T23:07:39.166Z,14.03
2018-11-06T23:10:07.252Z,16.30
2018-11-06T23:12:35.377Z,15.13
2018-11-06T23:15:03.478Z,11.50
2018-11-06T23:17:31.559Z,17.10
2018-11-06T23:19:59.671Z,12.50
2018-11-06T23:22:27.745Z,14.87
2018-11-06T23:24:55.883Z,11.80
2018-11-06T23:27:23.885Z,13.10
2018-11-06T23:29:52.047Z,14.87
2018-11-06T23:32:20.099Z,16.57
2018-11-06T23:34:48.214Z,12.37
2018-11-06T23:37:16.310Z,16.43
2018-11-06T23:39:44.456Z,16.10
2018-11-06T23:42:12.509Z,18.53
2018-11-06T23:44:40.690Z,13.80
2018-11-06T23:47:08.777Z,14.23
2018-11-06T23:49:36.875Z,15.43
2018-11-06T23:52:04.993Z,13.30
2018-11-06T23:54:33.107Z,13.00
2018-11-06T23:57:01.232Z,11.67
2018-11-06T23:59:29.348Z,15.60
